This is the latest recevied weather packets stored in our database for station/object K6CEG. If no packets are shown the sender has not sent any weather packets the latest 10 day(s).
| Time | Temp. | Humidity | Pressure | Rain* | Wind** | Luminosity | Snow |
|---|---|---|---|---|---|---|---|
| 1788373295 | 27.22° C | 39% | 1018.4 hPa | 0 mm | - | 843 W/m² | - |
| 1788372991 | 27.22° C | 39% | 1018.3 hPa | 0 mm | - | 800 W/m² | - |
| 1788372690 | 26.67° C | 41% | 1018.1 hPa | 0 mm | - | 803 W/m² | - |
| 1788372390 | 26.67° C | 41% | 1018.6 hPa | 0 mm | - | 787 W/m² | - |
| 1788372086 | 26.67° C | 43% | 1018 hPa | 0 mm | - | 794 W/m² | - |
| 1788371786 | 26.11° C | 43% | 1018.4 hPa | 0 mm | - | 711 W/m² | - |
| 1788371481 | 26.11° C | 43% | 1018.3 hPa | 0 mm | - | 727 W/m² | - |
| 1788371178 | 25.56° C | 42% | 1018.1 hPa | 0 mm | - | 756 W/m² | - |
| 1788370873 | 25.56° C | 44% | 1018.4 hPa | 0 mm | - | 772 W/m² | - |
| 1788370568 | 25.56° C | 44% | 1018.3 hPa | 0 mm | - | 765 W/m² | - |
| 1788370263 | 26.11° C | 45% | 1018.4 hPa | 0 mm | - | 707 W/m² | - |
| 1788369962 | 25° C | 49% | 1018.5 hPa | 0 mm | - | 656 W/m² | - |
| 1788369657 | 25° C | 50% | 1018.3 hPa | 0 mm | - | 627 W/m² | - |
| 1788369353 | 25° C | 48% | 1018.3 hPa | 0 mm | - | 666 W/m² | - |
| 1788369049 | 25° C | 48% | 1018.4 hPa | 0 mm | - | 578 W/m² | - |
| 1788368744 | 25° C | 49% | 1018.3 hPa | 0 mm | - | 581 W/m² | - |
| 1788368440 | 24.44° C | 51% | 1018.5 hPa | 0 mm | - | 595 W/m² | - |
| 1788368139 | 25° C | 50% | 1018.2 hPa | 0 mm | - | 556 W/m² | - |
| 1788367839 | 24.44° C | 50% | 1018.3 hPa | 0 mm | - | 517 W/m² | - |
| 1788367535 | 23.89° C | 52% | 1018.2 hPa | 0 mm | - | 488 W/m² | - |
| 1788367233 | 22.78° C | 54% | 1018.1 hPa | 0 mm | - | 426 W/m² | - |
| 1788366929 | 22.78° C | 53% | 1018.4 hPa | 0 mm | - | 432 W/m² | - |
| 1788366628 | 22.22° C | 53% | 1018.1 hPa | 0 mm | - | 439 W/m² | - |
| 1788366327 | 22.78° C | 51% | 1018.4 hPa | 0 mm | - | 400 W/m² | - |
| 1788366022 | 23.33° C | 50% | 1018.5 hPa | 0 mm | - | 330 W/m² | - |
* Rain latest hour (hover to see other rain measurements)
** Current wind speed in m/s (hover to see current wind gust speed)